Time;durP1;ratioP1;P1;durP2;ratioP2;P2;SDS_P1;SDS_P2;PMS_P1;PMS_P2;Temp;Humidity;BMP_temperature;BMP_pressure;BME280_temperature;BME280_humidity;BME280_pressure;Samples;Min_cycle;Max_cycle;Signal;HPM_P1;HPM_P2
2022/01/22 00:01:43;;;;;;;13.75;7.40;;;6.70;74.70;;;-142.21;100.00;112049.66;6275471;22;20173;-78
2022/01/22 00:04:10;;;;;;;12.68;7.45;;;6.70;73.50;;;-142.21;100.00;112049.66;6274485;22;20182;-75
2022/01/22 00:06:37;;;;;;;12.15;7.13;;;6.70;74.00;;;-142.21;100.00;112049.66;6275483;22;20234;-77
2022/01/22 00:09:06;;;;;;;10.07;6.60;;;6.60;73.80;;;-142.21;100.00;112049.66;6274567;22;20238;-76
2022/01/22 00:11:38;;;;;;;13.98;7.40;;;6.60;74.10;;;-142.21;100.00;112049.66;6275256;22;20510;-76
2022/01/22 00:14:24;;;;;;;13.00;7.30;;;6.60;74.20;;;-142.21;100.00;112049.66;6274945;22;20184;-76
2022/01/22 00:16:53;;;;;;;13.32;7.35;;;6.60;74.20;;;-142.21;100.00;112049.66;6275442;22;20617;-75
2022/01/22 00:19:25;;;;;;;11.07;6.68;;;6.60;74.10;;;-142.21;100.00;112049.66;6273858;22;20200;-78
2022/01/22 00:21:53;;;;;;;11.23;6.88;;;6.60;74.20;;;-142.21;100.00;112049.66;6275257;22;20157;-76
2022/01/22 00:24:21;;;;;;;13.25;7.13;;;6.60;74.00;;;-142.21;100.00;112049.66;6275262;22;20472;-75
2022/01/22 00:26:49;;;;;;;9.95;6.50;;;6.60;73.60;;;-142.21;100.00;112049.66;6277381;22;20220;-74
2022/01/22 00:29:17;;;;;;;11.95;7.13;;;6.60;73.90;;;-142.21;100.00;112049.66;6276660;22;20613;-76
2022/01/22 00:31:45;;;;;;;8.90;6.20;;;6.60;73.90;;;-142.21;100.00;112049.66;6277468;22;20183;-76
2022/01/22 00:34:13;;;;;;;11.90;7.40;;;6.50;74.20;;;-142.21;100.00;112049.66;6276916;22;20181;-76
2022/01/22 00:36:41;;;;;;;10.93;6.72;;;6.60;74.10;;;-142.21;100.00;112049.66;6277064;22;20180;-76
2022/01/22 00:39:08;;;;;;;11.70;6.63;;;6.60;74.00;;;-142.21;100.00;112049.66;6277111;22;20542;-77
2022/01/22 00:41:36;;;;;;;8.98;6.75;;;6.60;74.10;;;-142.21;100.00;112049.66;6276501;22;20223;-76
2022/01/22 00:44:03;;;;;;;14.25;7.00;;;6.60;73.90;;;-142.21;100.00;112049.66;6277366;22;20173;-76
2022/01/22 00:46:32;;;;;;;10.90;6.40;;;6.70;74.70;;;-142.21;100.00;112049.66;6275828;22;20243;-78
2022/01/22 00:49:00;;;;;;;9.60;6.35;;;6.70;74.30;;;-142.21;100.00;112049.66;6276877;22;20231;-77
2022/01/22 00:51:27;;;;;;;10.45;6.57;;;6.60;73.90;;;-142.21;100.00;112049.66;6276320;22;20173;-76
2022/01/22 00:53:54;;;;;;;11.57;6.82;;;6.60;74.00;;;-142.21;100.00;112049.66;6277023;22;20718;-78
2022/01/22 00:56:21;;;;;;;11.57;6.43;;;6.60;73.90;;;-142.21;100.00;112049.66;6276983;22;20179;-76
2022/01/22 00:58:49;;;;;;;11.32;7.72;;;6.70;74.00;;;-142.21;100.00;112049.66;6275991;22;20176;-76
2022/01/22 01:01:16;;;;;;;10.18;7.35;;;6.70;73.90;;;-142.21;100.00;112049.66;6277054;22;20177;-75
2022/01/22 01:03:45;;;;;;;10.38;6.97;;;6.60;74.00;;;-142.21;100.00;112049.66;6275955;22;20181;-78
2022/01/22 01:06:12;;;;;;;11.50;7.10;;;6.60;74.00;;;-142.21;100.00;112049.66;6276617;22;20234;-78
2022/01/22 01:08:42;;;;;;;11.23;7.90;;;6.60;73.90;;;-142.21;100.00;112049.66;6276160;22;20558;-76
2022/01/22 01:11:10;;;;;;;12.48;7.50;;;6.60;74.40;;;-142.21;100.00;112049.66;6277124;22;20251;-76
2022/01/22 01:13:43;;;;;;;14.00;7.85;;;6.50;74.30;;;-142.21;100.00;112049.66;6275973;22;20546;-80
2022/01/22 01:16:32;;;;;;;11.07;7.32;;;6.50;74.40;;;-142.21;100.00;112049.66;6276659;22;20450;-75
2022/01/22 01:32:54;;;;;;;14.50;7.75;;;6.50;74.10;;;-142.21;100.00;112049.66;6276783;22;20167;-75
2022/01/22 01:35:26;;;;;;;12.00;7.55;;;6.50;74.20;;;-142.21;100.00;112049.66;6276159;22;20169;-76
2022/01/22 01:37:55;;;;;;;12.07;7.90;;;6.50;74.40;;;-142.21;100.00;112049.66;6276020;22;20161;-76
2022/01/22 01:40:25;;;;;;;10.30;7.82;;;6.60;74.20;;;-142.21;100.00;112049.66;6276479;22;20211;-77
2022/01/22 01:43:04;;;;;;;11.40;7.50;;;6.60;74.10;;;-142.21;100.00;112049.66;6276520;22;20263;-75
2022/01/22 01:45:32;;;;;;;13.68;8.15;;;6.50;74.20;;;-142.21;100.00;112049.66;6276493;22;20156;-78
2022/01/22 01:48:05;;;;;;;10.95;7.55;;;6.50;74.60;;;-142.21;100.00;112049.66;6276026;22;20208;-77
2022/01/22 01:50:36;;;;;;;11.93;8.15;;;6.50;74.70;;;-142.21;100.00;112049.66;6277407;22;20163;-77
2022/01/22 01:53:10;;;;;;;11.38;7.38;;;6.50;74.40;;;-142.21;100.00;112049.66;6276514;22;20196;-76
2022/01/22 01:55:49;;;;;;;10.38;7.90;;;6.50;74.60;;;-142.21;100.00;112049.66;6276552;22;20232;-76
2022/01/22 01:58:17;;;;;;;11.23;7.60;;;6.50;74.60;;;-142.21;100.00;112049.66;6276205;22;20180;-77
2022/01/22 02:00:46;;;;;;;11.20;7.40;;;6.60;74.70;;;-142.21;100.00;112049.66;6276163;22;20185;-75
2022/01/22 02:03:13;;;;;;;10.80;7.25;;;6.70;74.40;;;-142.21;100.00;112049.66;6275497;22;20181;-77
2022/01/22 02:05:42;;;;;;;13.32;8.40;;;6.70;74.20;;;-142.21;100.00;112049.66;6276235;22;20498;-77
2022/01/22 02:08:12;;;;;;;11.98;7.80;;;6.70;74.10;;;-142.21;100.00;112049.66;6276099;22;20231;-76
2022/01/22 02:10:45;;;;;;;16.70;8.18;;;6.80;74.00;;;-142.21;100.00;112049.66;6276415;22;20179;-78
2022/01/22 02:24:14;;;;;;;9.40;7.60;;;6.80;73.70;;;-142.21;100.00;112049.66;6304737;22;20164;-77
2022/01/22 02:26:48;;;;;;;11.55;8.15;;;6.90;73.70;;;-142.21;100.00;112049.66;6297561;22;20225;-74
2022/01/22 02:29:15;;;;;;;12.75;8.48;;;6.80;74.10;;;-142.21;100.00;112049.66;6275979;22;20177;-77
2022/01/22 02:31:53;;;;;;;13.23;9.10;;;6.80;73.50;;;-142.21;100.00;112049.66;6275253;22;20551;-77
2022/01/22 02:34:30;;;;;;;13.10;9.02;;;6.80;73.70;;;-142.21;100.00;112049.66;6276327;22;20187;-76
2022/01/22 02:37:03;;;;;;;15.17;8.80;;;6.80;73.60;;;-142.21;100.00;112049.66;6276136;22;20533;-75
2022/01/22 02:39:38;;;;;;;13.82;9.15;;;6.80;73.70;;;-142.21;100.00;112049.66;6275661;22;20372;-76
2022/01/22 02:42:09;;;;;;;13.15;9.35;;;6.80;73.80;;;-142.21;100.00;112049.66;6276408;22;20182;-76
2022/01/22 02:44:44;;;;;;;16.58;9.45;;;6.80;74.30;;;-142.21;100.00;112049.66;6275421;22;20222;-76
2022/01/22 02:47:14;;;;;;;13.05;8.55;;;6.80;73.90;;;-142.21;100.00;112049.66;6275623;22;20250;-76
2022/01/22 02:49:41;;;;;;;15.65;9.43;;;6.80;74.20;;;-142.21;100.00;112049.66;6275673;22;20199;-78
2022/01/22 02:52:11;;;;;;;15.85;9.63;;;6.80;74.10;;;-142.21;100.00;112049.66;6276402;22;20223;-76
2022/01/22 02:54:40;;;;;;;15.30;9.52;;;6.90;74.30;;;-142.21;100.00;112049.66;6276166;22;20201;-78
2022/01/22 02:57:09;;;;;;;13.90;9.20;;;6.90;74.10;;;-142.21;100.00;112049.66;6277985;22;20259;-78
2022/01/22 02:59:36;;;;;;;12.50;9.85;;;6.90;73.70;;;-142.21;100.00;112049.66;6276185;22;20512;-77
2022/01/22 03:02:05;;;;;;;12.30;9.23;;;7.00;73.70;;;-142.21;100.00;112049.66;6275620;22;20238;-77
2022/01/22 03:04:32;;;;;;;12.38;9.30;;;7.00;73.50;;;-142.21;100.00;112049.66;6276061;22;21078;-77
2022/01/22 03:07:00;;;;;;;13.82;9.60;;;7.00;73.50;;;-142.21;100.00;112049.66;6275519;22;20203;-77
2022/01/22 03:09:32;;;;;;;12.73;9.15;;;7.00;74.50;;;-142.21;100.00;112049.66;6276987;22;20242;-76
2022/01/22 03:12:17;;;;;;;13.20;10.32;;;6.90;73.50;;;-142.21;100.00;112049.66;6276890;22;20172;-79
2022/01/22 03:15:27;;;;;;;14.75;9.68;;;6.90;73.70;;;-142.21;100.00;112049.66;6275808;22;20504;-79
2022/01/22 03:17:55;;;;;;;12.38;9.57;;;6.90;73.60;;;-142.21;100.00;112049.66;6275366;22;20210;-76
2022/01/22 03:20:41;;;;;;;12.35;9.35;;;6.90;73.70;;;-142.21;100.00;112049.66;6276180;22;20538;-76
2022/01/22 03:27:12;;;;;;;13.63;9.80;;;6.80;74.10;;;-142.21;100.00;112049.66;6275145;22;20152;-76
2022/01/22 03:28:54;;;;;;;12.23;9.45;;;6.80;73.90;;;-142.21;100.00;112049.66;6275549;22;20309;-76
2022/01/22 03:31:22;;;;;;;13.73;9.65;;;6.80;74.10;;;-142.21;100.00;112049.66;6275863;22;20163;-76
2022/01/22 03:33:49;;;;;;;13.25;8.75;;;6.80;73.80;;;-142.21;100.00;112049.66;6275635;22;20172;-76
2022/01/22 03:36:18;;;;;;;17.20;10.05;;;6.80;73.80;;;-142.21;100.00;112049.66;6275190;22;20176;-76
2022/01/22 03:38:46;;;;;;;14.52;9.50;;;6.80;74.20;;;-142.21;100.00;112049.66;6275659;22;20234;-77
2022/01/22 03:41:15;;;;;;;11.82;9.50;;;6.80;74.20;;;-142.21;100.00;112049.66;6274377;22;20243;-77
2022/01/22 03:43:43;;;;;;;14.50;9.82;;;6.80;74.40;;;-142.21;100.00;112049.66;6275941;22;20180;-78
2022/01/22 03:46:10;;;;;;;14.02;10.57;;;6.90;74.10;;;-142.21;100.00;112049.66;6274322;22;20184;-76
2022/01/22 03:48:38;;;;;;;17.85;10.57;;;6.90;74.00;;;-142.21;100.00;112049.66;6275330;22;20212;-77
2022/01/22 03:51:05;;;;;;;12.43;9.43;;;6.90;74.10;;;-142.21;100.00;112049.66;6275377;22;20181;-76
2022/01/22 03:53:32;;;;;;;14.23;9.27;;;6.90;73.90;;;-142.21;100.00;112049.66;6274585;22;20201;-75
2022/01/22 03:56:03;;;;;;;14.57;10.48;;;6.90;73.70;;;-142.21;100.00;112049.66;6275518;22;20207;-76
2022/01/22 03:58:35;;;;;;;13.52;9.75;;;6.90;73.70;;;-142.21;100.00;112049.66;6274934;22;20157;-75
2022/01/22 04:03:59;;;;;;;14.98;9.45;;;6.90;73.60;;;-142.21;100.00;112049.66;6277956;22;20654;-76
2022/01/22 04:09:14;;;;;;;15.45;9.57;;;6.80;74.40;;;-142.21;100.00;112049.66;6261459;22;20192;-76
2022/01/22 04:11:48;;;;;;;16.15;9.35;;;6.90;74.20;;;-142.21;100.00;112049.66;6276359;22;20165;-76
2022/01/22 04:14:21;;;;;;;13.32;9.80;;;6.80;73.90;;;-142.21;100.00;112049.66;6277016;22;20181;-74
2022/01/22 04:17:02;;;;;;;12.70;9.32;;;6.70;73.60;;;-142.21;100.00;112049.66;6277725;22;20192;-76
2022/01/22 04:24:58;;;;;;;13.27;9.45;;;6.80;72.90;;;-142.21;100.00;112049.66;6277041;22;20214;-76
2022/01/22 04:27:27;;;;;;;16.55;9.82;;;6.90;73.00;;;-142.21;100.00;112049.66;6277604;22;20211;-76
2022/01/22 04:29:58;;;;;;;13.38;8.95;;;6.90;73.30;;;-142.21;100.00;112049.66;6277135;22;20192;-76
2022/01/22 04:32:26;;;;;;;14.68;9.80;;;6.90;73.30;;;-142.21;100.00;112049.66;6277315;22;20180;-75
2022/01/22 04:34:54;;;;;;;14.68;9.10;;;6.90;73.50;;;-142.21;100.00;112049.66;6276481;22;20180;-76
2022/01/22 04:37:24;;;;;;;15.77;9.75;;;6.80;73.40;;;-142.21;100.00;112049.66;6277178;22;20200;-76
2022/01/22 04:39:52;;;;;;;12.57;9.90;;;6.80;73.60;;;-142.21;100.00;112049.66;6276444;22;20169;-76
2022/01/22 04:42:21;;;;;;;20.33;10.07;;;6.90;73.60;;;-142.21;100.00;112049.66;6276755;22;20251;-76
2022/01/22 04:44:56;;;;;;;14.32;9.45;;;6.90;73.60;;;-142.21;100.00;112049.66;6276973;22;20173;-77
2022/01/22 04:47:35;;;;;;;12.55;9.63;;;6.90;73.30;;;-142.21;100.00;112049.66;6277265;22;20196;-76
2022/01/22 04:55:29;;;;;;;13.53;9.70;;;6.90;73.50;;;-142.21;100.00;112049.66;6275459;22;20172;-75
2022/01/22 04:57:56;;;;;;;14.38;9.60;;;7.00;73.10;;;-142.21;100.00;112049.66;6276543;22;20434;-75
2022/01/22 05:00:25;;;;;;;14.45;9.73;;;7.00;73.00;;;-142.21;100.00;112049.66;6277670;22;20212;-76
2022/01/22 05:02:53;;;;;;;19.70;10.10;;;7.00;73.10;;;-142.21;100.00;112049.66;6277180;22;20226;-77
2022/01/22 05:05:21;;;;;;;14.18;10.52;;;7.00;72.70;;;-142.21;100.00;112049.66;6276671;22;20260;-75
2022/01/22 05:07:48;;;;;;;16.73;9.82;;;7.10;73.00;;;-142.21;100.00;112049.66;6276427;22;20621;-77
2022/01/22 05:10:15;;;;;;;15.20;9.32;;;7.00;72.90;;;-142.21;100.00;112049.66;6276276;22;20202;-76
2022/01/22 05:12:43;;;;;;;14.57;9.27;;;7.10;72.80;;;-142.21;100.00;112049.66;6276901;22;20169;-76
2022/01/22 05:15:12;;;;;;;12.85;9.35;;;7.10;72.90;;;-142.21;100.00;112049.66;6276178;22;20629;-75
2022/01/22 05:17:42;;;;;;;12.82;9.48;;;7.10;73.00;;;-142.21;100.00;112049.66;6276981;22;20211;-78
2022/01/22 05:20:18;;;;;;;13.85;9.65;;;7.10;72.80;;;-142.21;100.00;112049.66;6276292;22;20204;-78
2022/01/22 05:22:55;;;;;;;14.15;10.23;;;7.10;72.90;;;-142.21;100.00;112049.66;6276416;22;20200;-75
2022/01/22 05:25:28;;;;;;;13.73;9.33;;;7.20;72.50;;;-142.21;100.00;112049.66;6275798;22;20218;-79
2022/01/22 05:31:03;;;;;;;16.40;9.65;;;7.10;72.80;;;-142.21;100.00;112049.66;6250759;22;20501;-79
2022/01/22 05:39:08;;;;;;;15.23;10.30;;;7.10;72.50;;;-142.21;100.00;112049.66;6276892;22;20267;-81
2022/01/22 05:41:35;;;;;;;12.18;9.07;;;7.10;72.50;;;-142.21;100.00;112049.66;6275966;22;20154;-81
2022/01/22 05:44:03;;;;;;;13.48;9.73;;;7.20;72.50;;;-142.21;100.00;112049.66;6276687;22;20181;-81
2022/01/22 05:46:30;;;;;;;14.38;9.48;;;7.10;72.50;;;-142.21;100.00;112049.66;6275486;22;20285;-75
2022/01/22 05:48:57;;;;;;;17.77;9.83;;;7.10;72.70;;;-142.21;100.00;112049.66;6276267;22;20564;-74
2022/01/22 05:51:25;;;;;;;15.63;10.50;;;7.10;72.60;;;-142.21;100.00;112049.66;6275714;22;20430;-74
2022/01/22 05:54:16;;;;;;;14.07;9.65;;;7.10;72.80;;;-142.21;100.00;112049.66;6275938;22;20481;-77
2022/01/22 05:59:37;;;;;;;16.10;10.10;;;7.10;72.60;;;-142.21;100.00;112049.66;6275923;22;20696;-75
2022/01/22 06:02:06;;;;;;;13.43;9.98;;;7.10;72.60;;;-142.21;100.00;112049.66;6249372;22;20538;-75
2022/01/22 06:04:33;;;;;;;16.02;10.55;;;7.10;72.70;;;-142.21;100.00;112049.66;6275672;22;20200;-76
2022/01/22 06:07:04;;;;;;;15.10;10.65;;;7.10;72.50;;;-142.21;100.00;112049.66;6276270;22;20180;-76
2022/01/22 06:09:32;;;;;;;16.10;10.90;;;7.10;72.70;;;-142.21;100.00;112049.66;6275877;22;20571;-75
2022/01/22 06:12:15;;;;;;;13.43;10.05;;;7.10;72.50;;;-142.21;100.00;112049.66;6276642;22;20234;-75
2022/01/22 06:14:42;;;;;;;13.53;9.83;;;7.20;72.60;;;-142.21;100.00;112049.66;6275838;22;20154;-75
2022/01/22 06:17:10;;;;;;;15.77;11.17;;;7.20;72.60;;;-142.21;100.00;112049.66;6276672;22;20415;-76
2022/01/22 06:19:37;;;;;;;15.10;10.40;;;7.10;72.60;;;-142.21;100.00;112049.66;6275589;22;20404;-76
2022/01/22 06:22:06;;;;;;;12.33;9.87;;;7.20;72.60;;;-142.21;100.00;112049.66;6275706;22;20187;-75
2022/01/22 06:24:33;;;;;;;16.17;11.30;;;7.20;72.50;;;-142.21;100.00;112049.66;6276269;22;20464;-76
2022/01/22 06:27:00;;;;;;;14.60;10.98;;;7.10;72.50;;;-142.21;100.00;112049.66;6275849;22;20439;-75
2022/01/22 06:29:27;;;;;;;17.47;11.00;;;7.10;72.70;;;-142.21;100.00;112049.66;6276418;22;20572;-75
2022/01/22 06:31:55;;;;;;;21.17;10.27;;;7.20;72.80;;;-142.21;100.00;112049.66;6275625;22;20428;-75
2022/01/22 06:34:22;;;;;;;15.57;10.82;;;7.20;72.70;;;-142.21;100.00;112049.66;6275797;22;20926;-75
2022/01/22 06:36:49;;;;;;;15.40;10.50;;;7.10;72.80;;;-142.21;100.00;112049.66;6275406;22;20226;-75
2022/01/22 06:39:20;;;;;;;15.52;10.90;;;7.20;72.80;;;-142.21;100.00;112049.66;6276107;22;20431;-75
2022/01/22 06:41:46;;;;;;;16.05;11.10;;;7.20;72.80;;;-142.21;100.00;112049.66;6276548;22;20597;-75
2022/01/22 06:44:17;;;;;;;15.70;11.27;;;7.20;72.70;;;-142.21;100.00;112049.66;6275776;22;20177;-76
2022/01/22 06:46:47;;;;;;;15.77;11.43;;;7.20;73.00;;;-142.21;100.00;112049.66;6276003;22;20431;-77
2022/01/22 06:49:15;;;;;;;16.48;11.68;;;7.20;73.00;;;-142.21;100.00;112049.66;6275516;22;20923;-76
2022/01/22 06:51:43;;;;;;;15.60;11.32;;;7.20;72.80;;;-142.21;100.00;112049.66;6277815;22;20621;-76
2022/01/22 06:54:14;;;;;;;14.55;10.45;;;7.20;72.90;;;-142.21;100.00;112049.66;6276684;22;20718;-76
2022/01/22 06:56:42;;;;;;;16.43;11.47;;;7.20;72.90;;;-142.21;100.00;112049.66;6294793;22;20165;-77
2022/01/22 06:59:11;;;;;;;17.50;12.17;;;7.30;72.70;;;-142.21;100.00;112049.66;6303202;22;20406;-78
2022/01/22 07:01:39;;;;;;;17.42;11.13;;;7.30;72.80;;;-142.21;100.00;112049.66;6285746;22;20404;-77
2022/01/22 07:04:06;;;;;;;20.13;12.07;;;7.30;72.80;;;-142.21;100.00;112049.66;6275692;22;20177;-75
2022/01/22 07:06:34;;;;;;;15.73;12.23;;;7.30;72.80;;;-142.21;100.00;112049.66;6276125;22;20177;-76
2022/01/22 07:09:01;;;;;;;19.63;11.83;;;7.30;72.70;;;-142.21;100.00;112049.66;6275809;22;20493;-76
2022/01/22 07:11:28;;;;;;;17.30;11.67;;;7.30;72.70;;;-142.21;100.00;112049.66;6275593;22;20435;-74
2022/01/22 07:13:57;;;;;;;18.67;12.57;;;7.30;72.60;;;-142.21;100.00;112049.66;6276182;22;20395;-75
2022/01/22 07:16:25;;;;;;;16.67;11.47;;;7.30;72.70;;;-142.21;100.00;112049.66;6274724;22;20403;-76
2022/01/22 07:18:58;;;;;;;18.30;12.03;;;7.30;72.50;;;-142.21;100.00;112049.66;6275671;22;20434;-76
2022/01/22 07:21:28;;;;;;;18.10;12.73;;;7.30;72.70;;;-142.21;100.00;112049.66;6275371;22;20681;-75
2022/01/22 07:26:48;;;;;;;17.40;11.67;;;7.40;72.80;;;-142.21;100.00;112049.66;6275154;22;20172;-76
2022/01/22 07:29:17;;;;;;;19.17;12.20;;;7.30;72.70;;;-142.21;100.00;112049.66;6284866;22;20488;-77
2022/01/22 07:31:46;;;;;;;19.20;12.07;;;7.30;72.80;;;-142.21;100.00;112049.66;6274800;22;20453;-77
2022/01/22 07:34:13;;;;;;;17.00;11.67;;;7.30;72.90;;;-142.21;100.00;112049.66;6275041;22;20475;-76
2022/01/22 07:36:41;;;;;;;14.85;11.82;;;7.40;72.70;;;-142.21;100.00;112049.66;6274793;22;20441;-77
2022/01/22 07:39:08;;;;;;;17.63;12.02;;;7.40;72.50;;;-142.21;100.00;112049.66;6275535;22;20194;-75
2022/01/22 07:41:36;;;;;;;18.00;12.52;;;7.40;72.40;;;-142.21;100.00;112049.66;6275264;22;20180;-75
2022/01/22 07:44:04;;;;;;;18.10;13.00;;;7.40;72.40;;;-142.21;100.00;112049.66;6275729;22;20203;-78
2022/01/22 07:46:33;;;;;;;18.35;13.02;;;7.40;72.40;;;-142.21;100.00;112049.66;6275314;22;20427;-76
2022/01/22 07:49:00;;;;;;;15.82;12.50;;;7.40;72.50;;;-142.21;100.00;112049.66;6275430;22;20706;-78
2022/01/22 07:51:27;;;;;;;17.50;13.10;;;7.40;72.40;;;-142.21;100.00;112049.66;6275802;22;20181;-77
2022/01/22 07:53:54;;;;;;;17.80;12.00;;;7.50;72.40;;;-142.21;100.00;112049.66;6274588;22;20419;-76
2022/01/22 07:56:22;;;;;;;18.27;12.10;;;7.50;72.30;;;-142.21;100.00;112049.66;6275597;22;20212;-74
2022/01/22 07:58:49;;;;;;;19.33;12.93;;;7.50;72.30;;;-142.21;100.00;112049.66;6274926;22;20442;-74
2022/01/22 08:01:16;;;;;;;15.93;12.10;;;7.50;72.30;;;-142.21;100.00;112049.66;6275278;22;20631;-75
2022/01/22 08:03:45;;;;;;;16.60;13.13;;;7.50;72.30;;;-142.21;100.00;112049.66;6274720;22;20942;-79
2022/01/22 08:06:15;;;;;;;18.45;11.93;;;7.60;72.20;;;-142.21;100.00;112049.66;6275821;22;20457;-76
2022/01/22 08:08:42;;;;;;;17.93;12.90;;;7.70;72.10;;;-142.21;100.00;112049.66;6275867;22;20246;-79
2022/01/22 08:11:09;;;;;;;17.35;13.00;;;7.70;71.90;;;-142.21;100.00;112049.66;6275239;22;20431;-79
2022/01/22 08:13:36;;;;;;;17.20;12.37;;;7.70;72.20;;;-142.21;100.00;112049.66;6275805;22;20234;-81
2022/01/22 08:16:04;;;;;;;17.23;12.47;;;7.70;72.00;;;-142.21;100.00;112049.66;6274618;22;20491;-76
2022/01/22 08:18:31;;;;;;;18.90;12.73;;;7.60;72.10;;;-142.21;100.00;112049.66;6275334;22;20415;-76
2022/01/22 08:21:00;;;;;;;17.60;12.07;;;7.60;72.30;;;-142.21;100.00;112049.66;6274560;22;20426;-75
2022/01/22 08:23:28;;;;;;;32.83;13.60;;;7.60;72.40;;;-142.21;100.00;112049.66;6275796;22;20395;-75
2022/01/22 08:25:56;;;;;;;17.60;13.73;;;7.60;72.70;;;-142.21;100.00;112049.66;6275472;22;20479;-75
2022/01/22 08:31:19;;;;;;;20.33;12.17;;;7.70;72.40;;;-142.21;100.00;112049.66;6274570;22;20238;-77
2022/01/22 08:36:39;;;;;;;19.40;12.17;;;7.60;72.30;;;-142.21;100.00;112049.66;6162491;22;20179;-77
2022/01/22 08:39:09;;;;;;;16.52;11.88;;;7.60;72.30;;;-142.21;100.00;112049.66;6274575;22;20411;-79
2022/01/22 08:41:37;;;;;;;17.70;11.37;;;7.60;72.20;;;-142.21;100.00;112049.66;6275057;22;20691;-75
2022/01/22 08:44:05;;;;;;;15.80;10.98;;;7.60;72.30;;;-142.21;100.00;112049.66;6274990;22;20396;-75
2022/01/22 08:46:34;;;;;;;17.73;11.63;;;7.70;72.40;;;-142.21;100.00;112049.66;6276296;22;20321;-81
2022/01/22 08:49:04;;;;;;;17.90;11.40;;;7.70;72.20;;;-142.21;100.00;112049.66;6277332;22;20406;-80
2022/01/22 08:51:32;;;;;;;13.17;10.93;;;7.70;72.20;;;-142.21;100.00;112049.66;6276529;22;20460;-78
2022/01/22 08:54:02;;;;;;;13.70;10.23;;;7.80;72.00;;;-142.21;100.00;112049.66;6276976;22;20469;-77
2022/01/22 08:56:30;;;;;;;15.33;10.93;;;7.80;72.00;;;-142.21;100.00;112049.66;6277054;22;20418;-75
2022/01/22 08:58:58;;;;;;;17.60;11.07;;;7.80;71.70;;;-142.21;100.00;112049.66;6277519;22;20568;-75
2022/01/22 09:01:26;;;;;;;15.40;10.80;;;7.70;71.70;;;-142.21;100.00;112049.66;6276876;22;20441;-76
2022/01/22 09:03:53;;;;;;;16.30;10.30;;;7.80;72.00;;;-142.21;100.00;112049.66;6276967;22;20411;-76
2022/01/22 09:06:21;;;;;;;13.87;10.87;;;7.80;71.90;;;-142.21;100.00;112049.66;6276152;22;20792;-79
2022/01/22 09:08:51;;;;;;;14.77;10.33;;;7.90;71.70;;;-142.21;100.00;112049.66;6277166;22;20481;-80
2022/01/22 09:11:20;;;;;;;16.10;10.53;;;7.90;71.60;;;-142.21;100.00;112049.66;6276616;22;20446;-80
2022/01/22 09:13:48;;;;;;;13.67;10.70;;;7.90;71.30;;;-142.21;100.00;112049.66;6275714;22;20418;-80
2022/01/22 09:16:21;;;;;;;16.17;10.60;;;8.00;71.30;;;-142.21;100.00;112049.66;6276642;22;20949;-79
2022/01/22 09:18:50;;;;;;;16.60;11.07;;;8.00;71.20;;;-142.21;100.00;112049.66;6276303;22;20430;-76
2022/01/22 09:21:17;;;;;;;16.00;10.97;;;8.00;71.10;;;-142.21;100.00;112049.66;6277503;22;20442;-80
2022/01/22 09:23:45;;;;;;;15.50;11.10;;;8.00;71.10;;;-142.21;100.00;112049.66;6276716;22;20411;-76
2022/01/22 09:26:12;;;;;;;16.30;10.07;;;8.00;71.10;;;-142.21;100.00;112049.66;6277338;22;20399;-79
2022/01/22 09:28:42;;;;;;;13.73;10.17;;;8.00;71.10;;;-142.21;100.00;112049.66;6276243;22;20402;-76
2022/01/22 09:31:10;;;;;;;13.83;10.83;;;8.00;71.20;;;-142.21;100.00;112049.66;6277371;22;20439;-77
2022/01/22 09:33:39;;;;;;;15.47;10.43;;;8.00;71.20;;;-142.21;100.00;112049.66;6277409;22;20415;-76
2022/01/22 09:36:06;;;;;;;16.30;10.20;;;8.00;70.70;;;-142.21;100.00;112049.66;6278510;22;20453;-76
2022/01/22 09:38:33;;;;;;;16.03;10.77;;;8.00;70.60;;;-142.21;100.00;112049.66;6277717;22;20486;-79
2022/01/22 09:41:01;;;;;;;17.40;10.00;;;7.90;70.50;;;-142.21;100.00;112049.66;6276447;22;20415;-78
2022/01/22 09:43:28;;;;;;;11.67;9.73;;;7.90;70.70;;;-142.21;100.00;112049.66;6277069;22;20485;-76
2022/01/22 09:45:57;;;;;;;13.73;9.13;;;7.80;70.70;;;-142.21;100.00;112049.66;6275886;22;20453;-79
2022/01/22 09:48:24;;;;;;;13.13;9.63;;;7.90;70.70;;;-142.21;100.00;112049.66;6276531;22;20855;-80
2022/01/22 09:50:52;;;;;;;14.20;9.90;;;8.00;70.60;;;-142.21;100.00;112049.66;6275795;22;20474;-79
2022/01/22 09:53:20;;;;;;;13.00;9.57;;;8.00;70.40;;;-142.21;100.00;112049.66;6276832;22;20399;-77
2022/01/22 09:55:47;;;;;;;13.70;9.60;;;8.00;70.40;;;-142.21;100.00;112049.66;6276418;22;20484;-77
2022/01/22 09:58:15;;;;;;;14.50;9.37;;;7.90;70.40;;;-142.21;100.00;112049.66;6276250;22;20392;-78
2022/01/22 10:00:42;;;;;;;14.33;9.10;;;8.00;70.40;;;-142.21;100.00;112049.66;6276178;22;20399;-79
2022/01/22 10:03:19;;;;;;;13.43;9.73;;;8.00;70.40;;;-142.21;100.00;112049.66;6275600;22;20464;-79
2022/01/22 10:05:48;;;;;;;17.83;10.03;;;7.90;70.20;;;-142.21;100.00;112049.66;6276961;22;20699;-77
2022/01/22 10:08:28;;;;;;;13.70;9.73;;;8.00;70.50;;;-142.21;100.00;112049.66;6250072;22;20477;-79
2022/01/22 10:11:00;;;;;;;12.93;9.60;;;8.00;70.40;;;-142.21;100.00;112049.66;6277127;22;20749;-79
2022/01/22 10:13:46;;;;;;;14.40;9.77;;;8.10;70.40;;;-142.21;100.00;112049.66;6249933;22;20859;-79
2022/01/22 10:16:23;;;;;;;14.20;9.77;;;8.00;70.00;;;-142.21;100.00;112049.66;6275952;22;20418;-82
2022/01/22 10:19:11;;;;;;;15.23;9.67;;;8.00;71.00;;;-142.21;100.00;112049.66;6276775;22;20425;-76
2022/01/22 10:21:42;;;;;;;14.97;9.70;;;8.10;70.40;;;-142.21;100.00;112049.66;6276628;22;20415;-80
2022/01/22 10:24:39;;;;;;;14.00;10.00;;;8.00;70.40;;;-142.21;100.00;112049.66;6276557;22;20383;-80
2022/01/22 10:27:30;;;;;;;16.57;10.13;;;8.00;70.20;;;-142.21;100.00;112049.66;6276980;22;20227;-79
2022/01/22 10:30:03;;;;;;;14.80;9.97;;;8.10;70.40;;;-142.21;100.00;112049.66;6276467;22;20446;-81
2022/01/22 10:32:44;;;;;;;15.77;10.90;;;8.10;70.30;;;-142.21;100.00;112049.66;6276361;22;20384;-79
2022/01/22 10:35:16;;;;;;;16.00;9.90;;;8.10;70.00;;;-142.21;100.00;112049.66;6276452;22;20407;-80
2022/01/22 10:37:44;;;;;;;16.87;9.97;;;8.20;70.10;;;-142.21;100.00;112049.66;6277174;22;20733;-81
2022/01/22 10:40:21;;;;;;;13.90;9.93;;;8.20;70.00;;;-142.21;100.00;112049.66;6276118;22;20513;-81
2022/01/22 10:42:49;;;;;;;17.47;10.03;;;8.20;70.30;;;-142.21;100.00;112049.66;6276566;22;20762;-77
2022/01/22 10:45:25;;;;;;;14.17;9.90;;;8.30;70.20;;;-142.21;100.00;112049.66;6276092;22;20392;-80
2022/01/22 10:48:15;;;;;;;13.80;9.40;;;8.30;69.70;;;-142.21;100.00;112049.66;6276480;22;20981;-76
2022/01/22 10:50:45;;;;;;;15.70;9.47;;;8.40;69.80;;;-142.21;100.00;112049.66;6275522;22;20522;-78
2022/01/22 10:53:12;;;;;;;19.47;9.77;;;8.40;69.50;;;-142.21;100.00;112049.66;6276106;22;20742;-80
2022/01/22 10:56:03;;;;;;;14.83;9.50;;;8.40;69.40;;;-142.21;100.00;112049.66;6276063;22;20445;-77
2022/01/22 10:58:33;;;;;;;14.23;9.90;;;8.40;69.50;;;-142.21;100.00;112049.66;6276333;22;20435;-79
2022/01/22 11:01:04;;;;;;;15.30;10.50;;;8.30;69.40;;;-142.21;100.00;112049.66;6276874;22;20403;-74
2022/01/22 11:03:35;;;;;;;15.37;9.97;;;8.30;69.50;;;-142.21;100.00;112049.66;6275789;22;20431;-78
2022/01/22 11:06:08;;;;;;;15.93;10.43;;;8.20;69.40;;;-142.21;100.00;112049.66;6276450;22;20404;-81
2022/01/22 11:08:37;;;;;;;15.20;9.77;;;8.30;69.70;;;-142.21;100.00;112049.66;6275491;22;20430;-79